Time;durP1;ratioP1;P1;durP2;ratioP2;P2;SDS_P1;SDS_P2;PMS_P1;PMS_P2;Temp;Humidity;BMP_temperature;BMP_pressure;BME280_temperature;BME280_humidity;BME280_pressure;Samples;Min_cycle;Max_cycle;Signal;HPM_P1;HPM_P2
2022/12/18 00:01:21;;;;;;;1.38;1.38;;;-1.10;99.90;;;;;;5015386;28;20065;-63
2022/12/18 00:03:47;;;;;;;2.80;2.63;;;-1.20;99.90;;;;;;5013094;28;20124;-63
2022/12/18 00:06:13;;;;;;;1.08;1.08;;;-1.20;99.90;;;;;;5015076;28;20099;-63
2022/12/18 00:08:39;;;;;;;4.00;1.90;;;-1.20;99.90;;;;;;5014065;28;20301;-63
2022/12/18 00:11:08;;;;;;;0.45;0.45;;;-1.20;99.90;;;;;;5012770;28;20263;-63
2022/12/18 00:13:34;;;;;;;1.75;1.65;;;-1.30;99.90;;;;;;5014705;28;20046;-63
2022/12/18 00:16:05;;;;;;;5.68;2.42;;;-1.20;99.90;;;;;;5014739;28;20490;-63
2022/12/18 00:18:32;;;;;;;0.73;0.73;;;-1.30;99.90;;;;;;5014331;28;20083;-63
2022/12/18 00:21:02;;;;;;;0.55;0.55;;;-1.30;99.90;;;;;;5013553;28;20401;-63
2022/12/18 00:23:29;;;;;;;0.50;0.50;;;-1.30;99.90;;;;;;5010713;28;20046;-63
2022/12/18 00:25:54;;;;;;;5.07;1.77;;;-1.30;99.90;;;;;;5013782;28;20527;-63
2022/12/18 00:28:20;;;;;;;1.23;1.20;;;-1.30;99.90;;;;;;5014002;28;20084;-63
2022/12/18 00:30:46;;;;;;;2.97;2.70;;;-1.30;99.90;;;;;;5013783;28;20420;-63
2022/12/18 00:33:11;;;;;;;0.50;0.50;;;-1.30;99.90;;;;;;5014029;28;20050;-63
2022/12/18 00:35:37;;;;;;;1.42;1.33;;;-1.30;99.90;;;;;;5014104;28;20105;-63
2022/12/18 00:38:02;;;;;;;0.47;0.47;;;-1.30;99.90;;;;;;5013642;28;20052;-63
2022/12/18 00:40:28;;;;;;;0.80;0.80;;;-1.40;99.90;;;;;;5013752;28;20049;-63
2022/12/18 00:42:56;;;;;;;5.70;1.38;;;-1.40;99.90;;;;;;5013898;28;20485;-63
2022/12/18 00:45:30;;;;;;;2.17;1.08;;;-1.40;99.90;;;;;;5014334;28;20042;-63
2022/12/18 00:47:57;;;;;;;1.95;1.88;;;-1.40;99.90;;;;;;5013091;28;20501;-63
2022/12/18 00:50:24;;;;;;;8.50;2.40;;;-1.40;99.90;;;;;;5014188;28;20038;-63
2022/12/18 00:52:51;;;;;;;1.38;1.27;;;-1.40;99.90;;;;;;5011552;28;20446;-63
2022/12/18 00:55:17;;;;;;;1.75;1.70;;;-1.40;99.90;;;;;;5014981;28;20441;-63
2022/12/18 00:57:42;;;;;;;2.40;2.15;;;-1.30;99.90;;;;;;5014132;28;20851;-63
2022/12/18 01:00:11;;;;;;;1.75;1.67;;;-1.30;99.90;;;;;;5012768;28;20132;-63
2022/12/18 01:02:37;;;;;;;1.20;1.15;;;-1.40;99.90;;;;;;5014843;28;20465;-63
2022/12/18 01:05:02;;;;;;;2.25;2.05;;;-1.40;99.90;;;;;;5011228;28;20099;-63
2022/12/18 01:07:28;;;;;;;1.13;1.05;;;-1.40;99.90;;;;;;5013779;28;20052;-63
2022/12/18 01:09:54;;;;;;;3.30;3.10;;;-1.50;99.90;;;;;;5011426;28;20096;-63
2022/12/18 01:12:19;;;;;;;1.73;0.90;;;-1.40;99.90;;;;;;5010192;28;20173;-63
2022/12/18 01:14:45;;;;;;;2.45;2.10;;;-1.50;99.90;;;;;;5010630;28;20046;-63
2022/12/18 01:17:10;;;;;;;1.17;1.17;;;-1.50;99.90;;;;;;5010876;28;20126;-63
2022/12/18 01:19:36;;;;;;;0.38;0.38;;;-1.40;99.90;;;;;;5009818;28;20493;-63
2022/12/18 01:22:02;;;;;;;0.30;0.30;;;-1.40;99.90;;;;;;5009661;28;20421;-63
2022/12/18 01:24:27;;;;;;;3.58;2.60;;;-1.40;99.90;;;;;;5009486;28;20046;-63
2022/12/18 01:26:53;;;;;;;1.33;1.27;;;-1.40;99.90;;;;;;5010541;28;20045;-63
2022/12/18 01:29:18;;;;;;;1.27;1.27;;;-1.40;99.90;;;;;;5008023;28;20046;-63
2022/12/18 01:31:44;;;;;;;2.53;1.70;;;-1.40;99.90;;;;;;5010720;28;20113;-63
2022/12/18 01:34:10;;;;;;;3.17;2.97;;;-1.50;99.90;;;;;;5008493;28;20128;-63
2022/12/18 01:36:38;;;;;;;0.82;0.82;;;-1.60;99.90;;;;;;5009574;28;20129;-63
2022/12/18 01:39:07;;;;;;;1.77;1.67;;;-1.50;99.90;;;;;;5010139;28;20046;-63
2022/12/18 01:44:56;;;;;;;3.97;1.33;;;-1.50;99.90;;;;;;5010364;28;20050;-63
2022/12/18 01:47:33;;;;;;;4.97;3.85;;;-1.40;99.90;;;;;;5026310;28;20053;-63
2022/12/18 01:50:06;;;;;;;1.85;1.75;;;-1.50;99.90;;;;;;5028836;28;20426;-63
2022/12/18 01:52:33;;;;;;;9.75;2.95;;;-1.50;99.90;;;;;;5029603;28;20048;-63
2022/12/18 01:55:00;;;;;;;0.45;0.45;;;-1.60;99.90;;;;;;5028615;28;20136;-63
2022/12/18 01:57:26;;;;;;;3.13;1.85;;;-1.50;99.90;;;;;;5030309;28;20063;-63
2022/12/18 01:59:56;;;;;;;2.25;2.15;;;-1.60;99.90;;;;;;5030179;28;20500;-63
2022/12/18 02:02:22;;;;;;;0.30;0.30;;;-1.60;99.90;;;;;;5028969;28;20077;-63
2022/12/18 02:04:48;;;;;;;0.57;0.57;;;-1.60;99.90;;;;;;5028739;28;20508;-63
2022/12/18 02:07:30;;;;;;;2.20;2.10;;;-1.50;99.90;;;;;;5027622;28;20049;-63
2022/12/18 02:09:59;;;;;;;0.90;0.90;;;-1.50;99.90;;;;;;5025123;28;20052;-63
2022/12/18 02:12:33;;;;;;;0.57;0.57;;;-1.60;99.90;;;;;;5044377;28;20048;-63
2022/12/18 02:14:59;;;;;;;1.48;1.42;;;-1.60;99.90;;;;;;5028416;28;20153;-63
2022/12/18 02:17:52;;;;;;;2.58;2.05;;;-1.60;99.90;;;;;;5029508;28;20049;-63
2022/12/18 02:20:24;;;;;;;0.85;0.85;;;-1.70;99.90;;;;;;5030331;28;20045;-63
2022/12/18 02:23:07;;;;;;;0.50;0.50;;;-1.70;99.90;;;;;;5027338;28;20077;-63
2022/12/18 02:26:10;;;;;;;2.03;1.92;;;-1.70;99.90;;;;;;5023037;28;20504;-63
2022/12/18 02:28:51;;;;;;;1.23;1.23;;;-1.80;99.90;;;;;;5030158;28;20049;-63
2022/12/18 02:31:24;;;;;;;0.40;0.40;;;-1.80;99.90;;;;;;5028881;28;20370;-63
2022/12/18 02:33:52;;;;;;;1.40;1.35;;;-1.80;99.90;;;;;;5029094;28;20080;-63
2022/12/18 02:36:21;;;;;;;1.27;1.23;;;-1.80;99.90;;;;;;5030436;28;20616;-62
2022/12/18 02:38:47;;;;;;;0.30;0.30;;;-1.80;99.90;;;;;;5029241;28;20045;-63
2022/12/18 02:41:15;;;;;;;1.88;1.77;;;-1.80;99.90;;;;;;5029317;28;20072;-62
2022/12/18 02:43:50;;;;;;;1.85;1.73;;;-1.80;99.90;;;;;;5027539;28;20076;-63
2022/12/18 02:46:36;;;;;;;4.30;2.92;;;-1.90;99.90;;;;;;5029236;28;20057;-63
2022/12/18 02:49:17;;;;;;;1.20;1.13;;;-1.90;99.90;;;;;;5027897;28;20370;-63
2022/12/18 02:52:08;;;;;;;10.63;5.43;;;-1.90;99.90;;;;;;5027669;28;20187;-63
2022/12/18 02:54:41;;;;;;;1.40;1.40;;;-2.00;99.90;;;;;;5019938;28;20140;-63
2022/12/18 02:57:17;;;;;;;0.22;0.22;;;-1.90;99.90;;;;;;5029729;28;20041;-62
2022/12/18 02:59:55;;;;;;;14.63;3.90;;;-1.90;99.90;;;;;;5025192;28;20069;-63
2022/12/18 03:02:33;;;;;;;1.58;1.48;;;-2.00;99.90;;;;;;5029725;28;20064;-63
2022/12/18 03:05:15;;;;;;;1.75;1.65;;;-2.00;99.90;;;;;;5027665;28;20049;-63
2022/12/18 03:07:48;;;;;;;6.32;1.58;;;-2.00;99.90;;;;;;5025756;28;20050;-63
2022/12/18 03:10:19;;;;;;;1.67;1.58;;;-2.00;99.90;;;;;;5028828;28;20123;-63
2022/12/18 03:12:51;;;;;;;1.33;1.23;;;-2.10;99.90;;;;;;5027491;28;20498;-63
2022/12/18 03:15:22;;;;;;;0.90;0.90;;;-2.10;99.90;;;;;;5027733;28;20041;-63
2022/12/18 03:18:03;;;;;;;0.77;0.77;;;-2.20;99.90;;;;;;5029103;28;20561;-62
2022/12/18 03:20:33;;;;;;;3.70;1.88;;;-2.20;99.90;;;;;;5027770;28;20103;-63
2022/12/18 03:23:07;;;;;;;1.83;1.73;;;-2.20;99.90;;;;;;5026598;28;20042;-63
2022/12/18 03:25:34;;;;;;;1.27;1.27;;;-2.30;99.90;;;;;;5028981;28;20095;-63
2022/12/18 03:28:03;;;;;;;1.27;1.02;;;-2.30;99.90;;;;;;5027147;28;20106;-63
2022/12/18 03:30:30;;;;;;;4.05;1.75;;;-2.30;99.90;;;;;;5028693;28;20072;-63
2022/12/18 03:33:08;;;;;;;2.28;2.17;;;-2.30;99.90;;;;;;5027417;28;20048;-63
2022/12/18 03:35:39;;;;;;;1.23;1.23;;;-2.30;99.90;;;;;;5027520;28;20037;-63
2022/12/18 03:38:05;;;;;;;0.88;0.80;;;-2.30;99.90;;;;;;5026885;28;20037;-62
2022/12/18 03:40:41;;;;;;;1.08;1.02;;;-2.20;99.90;;;;;;5028063;28;20045;-63
2022/12/18 03:43:19;;;;;;;0.60;0.60;;;-2.20;99.90;;;;;;5027348;28;20042;-62
2022/12/18 03:46:16;;;;;;;14.10;5.07;;;-2.30;99.90;;;;;;5027441;28;20045;-63
2022/12/18 03:48:48;;;;;;;0.43;0.43;;;-2.30;99.90;;;;;;5027174;28;20473;-62
2022/12/18 03:51:40;;;;;;;0.68;0.68;;;-2.30;99.90;;;;;;5026474;28;20056;-63
2022/12/18 03:54:08;;;;;;;0.65;0.65;;;-2.30;99.90;;;;;;5000243;28;20488;-63
2022/12/18 03:56:41;;;;;;;2.78;2.53;;;-2.30;99.90;;;;;;5027056;28;20041;-63
2022/12/18 03:59:09;;;;;;;0.70;0.70;;;-2.50;99.90;;;;;;5027881;28;20049;-63
2022/12/18 04:01:39;;;;;;;0.55;0.55;;;-2.40;99.90;;;;;;5026785;28;20056;-62
2022/12/18 04:04:06;;;;;;;2.08;1.98;;;-2.50;99.90;;;;;;5028233;28;20049;-63
2022/12/18 04:06:33;;;;;;;1.00;1.00;;;-2.40;99.90;;;;;;5026236;28;20034;-63
2022/12/18 04:08:59;;;;;;;7.93;6.03;;;-2.40;99.90;;;;;;5027092;28;20049;-63
2022/12/18 04:11:25;;;;;;;2.30;2.20;;;-2.40;99.90;;;;;;5028523;28;20735;-63
2022/12/18 04:13:54;;;;;;;1.60;1.50;;;-2.40;99.90;;;;;;5026138;28;20045;-63
2022/12/18 04:16:20;;;;;;;0.30;0.30;;;-2.40;99.90;;;;;;5026823;28;20038;-62
2022/12/18 04:18:45;;;;;;;5.30;3.42;;;-2.40;99.90;;;;;;5026145;28;20107;-62
2022/12/18 04:21:11;;;;;;;3.17;2.38;;;-2.50;99.90;;;;;;5027287;28;20057;-62
2022/12/18 04:23:37;;;;;;;1.63;1.38;;;-2.50;99.90;;;;;;5026882;28;20727;-62
2022/12/18 04:26:02;;;;;;;0.38;0.38;;;-2.50;99.90;;;;;;5025413;28;20057;-63
2022/12/18 04:28:28;;;;;;;1.67;1.60;;;-2.40;99.90;;;;;;5027485;28;20053;-62
2022/12/18 04:30:53;;;;;;;7.43;3.40;;;-2.50;99.90;;;;;;5027319;28;20072;-62
2022/12/18 04:33:19;;;;;;;0.70;0.70;;;-2.60;99.90;;;;;;5026571;28;20049;-63
2022/12/18 04:35:45;;;;;;;1.55;1.45;;;-2.50;99.90;;;;;;5027897;28;20045;-62
2022/12/18 04:38:11;;;;;;;15.80;2.20;;;-2.60;99.90;;;;;;5026837;28;20865;-62
2022/12/18 04:40:37;;;;;;;3.17;1.95;;;-2.60;99.90;;;;;;5027081;28;20497;-62
2022/12/18 04:43:03;;;;;;;4.20;3.90;;;-2.60;99.90;;;;;;5028177;28;20045;-62
2022/12/18 04:45:30;;;;;;;1.33;0.98;;;-2.70;99.90;;;;;;5016023;28;20416;-62
2022/12/18 04:47:58;;;;;;;3.08;2.88;;;-2.60;99.90;;;;;;5011618;28;20046;-62
2022/12/18 04:50:24;;;;;;;2.60;2.47;;;-2.60;99.90;;;;;;5011255;28;20100;-62
2022/12/18 04:52:49;;;;;;;0.52;0.52;;;-2.60;99.90;;;;;;5011300;28;20811;-62
2022/12/18 04:55:15;;;;;;;6.65;3.67;;;-2.70;99.90;;;;;;5011640;28;20089;-62
2022/12/18 04:57:40;;;;;;;0.50;0.50;;;-2.60;99.90;;;;;;5009857;28;20064;-62
2022/12/18 05:00:07;;;;;;;1.65;1.50;;;-2.80;99.90;;;;;;5010043;28;20045;-62
2022/12/18 05:02:32;;;;;;;1.38;1.33;;;-2.70;99.90;;;;;;5008777;28;20045;-62
2022/12/18 05:04:58;;;;;;;0.57;0.57;;;-2.80;99.90;;;;;;5009556;28;20045;-62
2022/12/18 05:07:24;;;;;;;0.82;0.82;;;-2.80;99.90;;;;;;5010754;28;20049;-62
2022/12/18 05:09:49;;;;;;;3.80;1.80;;;-2.80;99.90;;;;;;5010700;28;20053;-63
2022/12/18 05:12:15;;;;;;;5.30;3.60;;;-2.80;99.90;;;;;;5010187;28;20053;-62
2022/12/18 05:14:40;;;;;;;0.75;0.75;;;-2.80;99.90;;;;;;5010752;28;20041;-62
2022/12/18 05:17:06;;;;;;;1.15;1.15;;;-2.80;99.90;;;;;;5009854;28;20042;-62
2022/12/18 05:19:31;;;;;;;1.08;1.08;;;-2.80;99.90;;;;;;5009968;28;20073;-62
2022/12/18 05:21:57;;;;;;;3.17;2.97;;;-2.80;99.90;;;;;;5010342;28;20046;-62
2022/12/18 05:24:23;;;;;;;0.73;0.73;;;-2.90;99.90;;;;;;4993504;28;20050;-62
2022/12/18 05:26:48;;;;;;;8.30;2.80;;;-2.80;99.90;;;;;;5009805;28;20037;-62
2022/12/18 05:29:14;;;;;;;2.00;1.90;;;-2.90;99.90;;;;;;5011708;28;20096;-62
2022/12/18 05:31:39;;;;;;;8.85;1.40;;;-2.90;99.90;;;;;;5009444;28;20506;-62
2022/12/18 05:34:05;;;;;;;0.50;0.50;;;-2.80;99.90;;;;;;5009254;28;20120;-62
2022/12/18 05:36:31;;;;;;;1.20;1.20;;;-2.70;99.90;;;;;;5010260;28;20049;-62
2022/12/18 05:38:57;;;;;;;2.63;1.38;;;-2.70;99.90;;;;;;5010093;28;20074;-62
2022/12/18 05:41:23;;;;;;;2.33;1.67;;;-2.80;99.90;;;;;;5009533;28;20053;-62
2022/12/18 05:43:48;;;;;;;7.88;1.85;;;-2.80;99.90;;;;;;5011137;28;20588;-62
2022/12/18 05:46:17;;;;;;;1.73;1.63;;;-2.80;99.90;;;;;;5015993;28;20049;-62
2022/12/18 05:48:45;;;;;;;0.80;0.80;;;-2.80;99.90;;;;;;5029629;28;20056;-62
2022/12/18 05:51:16;;;;;;;0.85;0.82;;;-2.90;99.90;;;;;;5030144;28;20037;-62
2022/12/18 05:53:42;;;;;;;1.58;1.50;;;-2.90;99.90;;;;;;5028492;28;20562;-62
2022/12/18 05:56:11;;;;;;;5.85;5.32;;;-2.90;99.90;;;;;;5028132;28;20037;-62
2022/12/18 05:58:36;;;;;;;2.45;1.95;;;-3.00;99.90;;;;;;5029119;28;20087;-62
2022/12/18 06:01:11;;;;;;;1.27;1.17;;;-3.00;99.90;;;;;;5029200;28;20053;-62
2022/12/18 06:03:36;;;;;;;1.75;1.65;;;-3.00;99.90;;;;;;5029998;28;20045;-62
2022/12/18 06:06:02;;;;;;;0.30;0.30;;;-3.00;99.90;;;;;;5028469;28;20235;-62
2022/12/18 06:08:28;;;;;;;16.50;4.03;;;-3.00;99.90;;;;;;5028830;28;20041;-62
2022/12/18 06:10:54;;;;;;;0.63;0.63;;;-3.00;99.90;;;;;;5029508;28;20040;-62
2022/12/18 06:13:20;;;;;;;0.77;0.77;;;-3.10;99.90;;;;;;5029633;28;20069;-62
2022/12/18 06:15:45;;;;;;;0.40;0.40;;;-3.10;99.90;;;;;;5029237;28;20041;-62
2022/12/18 06:18:11;;;;;;;13.48;4.25;;;-3.10;99.90;;;;;;5029605;28;20059;-62
2022/12/18 06:20:39;;;;;;;2.55;1.27;;;-3.00;99.90;;;;;;5022022;28;20044;-62
2022/12/18 06:23:05;;;;;;;3.00;2.85;;;-3.00;99.90;;;;;;5028077;28;20111;-62
2022/12/18 06:25:31;;;;;;;1.60;1.13;;;-3.00;99.90;;;;;;5028400;28;20076;-62
2022/12/18 06:27:56;;;;;;;1.15;1.15;;;-3.10;99.90;;;;;;5027026;28;20077;-62
2022/12/18 06:30:22;;;;;;;1.23;1.23;;;-3.10;99.90;;;;;;5029787;28;20068;-62
2022/12/18 06:32:49;;;;;;;2.05;1.95;;;-3.10;99.90;;;;;;5026775;28;20042;-62
2022/12/18 06:35:14;;;;;;;0.52;0.52;;;-3.20;99.90;;;;;;5024656;28;20073;-62
2022/12/18 06:37:40;;;;;;;4.25;1.13;;;-3.20;99.90;;;;;;5014203;28;20072;-62
2022/12/18 06:40:06;;;;;;;7.38;2.38;;;-3.20;99.90;;;;;;5028970;28;20115;-62
2022/12/18 06:42:31;;;;;;;0.65;0.65;;;-3.30;99.90;;;;;;5027722;28;20037;-62
2022/12/18 06:44:57;;;;;;;0.82;0.82;;;-3.20;99.90;;;;;;5028889;28;20104;-62
2022/12/18 06:47:23;;;;;;;5.57;3.20;;;-3.40;99.90;;;;;;5028345;28;20545;-63
2022/12/18 06:49:48;;;;;;;0.57;0.57;;;-3.40;99.90;;;;;;5024694;28;20103;-62
2022/12/18 06:52:14;;;;;;;0.30;0.30;;;-3.30;99.90;;;;;;5028018;28;20034;-62
2022/12/18 06:54:40;;;;;;;4.38;4.00;;;-3.40;99.90;;;;;;5029363;28;20073;-62
2022/12/18 06:57:05;;;;;;;1.45;1.45;;;-3.40;99.90;;;;;;5026957;28;20056;-62
2022/12/18 06:59:31;;;;;;;0.25;0.25;;;-3.40;99.90;;;;;;5028553;28;20053;-62
2022/12/18 07:01:56;;;;;;;2.85;1.95;;;-3.30;99.90;;;;;;5027909;28;20042;-62
2022/12/18 07:04:26;;;;;;;4.50;3.40;;;-3.40;99.90;;;;;;5027972;28;20049;-62
2022/12/18 07:06:52;;;;;;;0.30;0.30;;;-3.40;99.90;;;;;;5028466;28;20094;-62
2022/12/18 07:09:17;;;;;;;0.82;0.82;;;-3.40;99.90;;;;;;5028547;28;20069;-62
2022/12/18 07:11:43;;;;;;;0.63;0.63;;;-3.50;99.90;;;;;;5028455;28;20056;-62
2022/12/18 07:14:08;;;;;;;5.57;1.45;;;-3.50;99.90;;;;;;5027467;28;20045;-62
2022/12/18 07:16:34;;;;;;;0.85;0.85;;;-3.50;99.90;;;;;;5028802;28;20045;-62
2022/12/18 07:19:00;;;;;;;0.65;0.65;;;-3.50;99.90;;;;;;5027673;28;20041;-62
2022/12/18 07:21:25;;;;;;;1.58;1.48;;;-3.50;99.90;;;;;;5027221;28;20419;-62
2022/12/18 07:23:51;;;;;;;0.40;0.40;;;-3.50;99.90;;;;;;5026754;28;20049;-62
2022/12/18 07:26:19;;;;;;;1.00;1.00;;;-3.50;99.90;;;;;;5024483;28;20530;-62
2022/12/18 07:28:45;;;;;;;2.65;1.95;;;-3.50;99.90;;;;;;5022768;28;20052;-62
2022/12/18 07:31:19;;;;;;;1.15;1.15;;;-3.50;99.90;;;;;;5027286;28;20037;-62
2022/12/18 07:33:45;;;;;;;2.60;2.22;;;-3.40;99.90;;;;;;5027641;28;20033;-62
2022/12/18 07:36:12;;;;;;;0.40;0.40;;;-3.40;99.90;;;;;;5025902;28;20512;-62
2022/12/18 07:38:37;;;;;;;1.20;1.20;;;-3.50;99.90;;;;;;5028567;28;20068;-62
2022/12/18 07:41:08;;;;;;;1.55;1.48;;;-3.40;99.90;;;;;;5027400;28;20038;-62
2022/12/18 07:43:35;;;;;;;4.78;3.72;;;-3.40;99.90;;;;;;5028595;28;20045;-61
2022/12/18 07:46:00;;;;;;;1.85;1.15;;;-3.50;99.90;;;;;;5025761;28;20049;-62
2022/12/18 07:48:27;;;;;;;3.25;3.05;;;-3.50;99.90;;;;;;5026850;28;20103;-62
2022/12/18 07:50:53;;;;;;;1.63;1.55;;;-3.50;99.90;;;;;;5027359;28;20057;-62
2022/12/18 07:53:18;;;;;;;1.83;1.73;;;-3.40;99.90;;;;;;5026843;28;20060;-62
2022/12/18 07:55:44;;;;;;;3.40;2.40;;;-3.50;99.90;;;;;;5026303;28;20489;-62
2022/12/18 07:58:10;;;;;;;0.85;0.85;;;-3.50;99.90;;;;;;5026842;28;20081;-62
2022/12/18 08:00:35;;;;;;;0.45;0.45;;;-3.50;99.90;;;;;;5026325;28;20057;-62
2022/12/18 08:03:01;;;;;;;3.00;2.75;;;-3.50;99.90;;;;;;5028378;28;20064;-62
2022/12/18 08:05:27;;;;;;;0.50;0.50;;;-3.50;99.90;;;;;;5024038;28;20103;-62
2022/12/18 08:07:54;;;;;;;1.27;1.27;;;-3.50;99.90;;;;;;5024227;28;20042;-62
2022/12/18 08:10:20;;;;;;;0.47;0.47;;;-3.40;99.90;;;;;;5027588;28;20059;-62
2022/12/18 08:12:48;;;;;;;17.25;1.50;;;-3.40;99.90;;;;;;5028267;28;20077;-62
2022/12/18 08:15:14;;;;;;;0.28;0.28;;;-3.40;99.90;;;;;;5027000;28;20048;-62
2022/12/18 08:17:39;;;;;;;1.02;1.02;;;-3.30;99.90;;;;;;5028635;28;20124;-63
2022/12/18 08:20:05;;;;;;;0.50;0.50;;;-3.30;99.90;;;;;;5029066;28;20045;-63
2022/12/18 08:22:37;;;;;;;0.82;0.82;;;-3.30;99.90;;;;;;5031140;28;20485;-63
2022/12/18 08:25:03;;;;;;;8.18;2.60;;;-3.20;99.90;;;;;;5032356;28;20092;-62
2022/12/18 08:27:29;;;;;;;2.05;1.85;;;-3.10;99.90;;;;;;5030368;28;20551;-62
2022/12/18 08:29:55;;;;;;;4.32;1.48;;;-3.10;99.90;;;;;;5030870;28;20053;-62
2022/12/18 08:32:20;;;;;;;0.43;0.43;;;-3.20;99.90;;;;;;5032348;28;20045;-62
2022/12/18 08:34:46;;;;;;;0.88;0.88;;;-3.10;99.90;;;;;;5029615;28;20056;-63
2022/12/18 08:37:11;;;;;;;1.02;1.02;;;-3.10;99.90;;;;;;5031658;28;20076;-62
2022/12/18 08:39:37;;;;;;;0.20;0.20;;;-3.10;99.90;;;;;;5029834;28;20049;-62
2022/12/18 08:44:47;;;;;;;2.25;2.05;;;-3.00;99.90;;;;;;5022109;28;20045;-62
2022/12/18 08:47:12;;;;;;;2.47;2.28;;;-3.00;99.90;;;;;;5029697;28;20505;-62
2022/12/18 08:49:38;;;;;;;1.80;1.58;;;-3.00;99.90;;;;;;5027398;28;20451;-63
2022/12/18 08:52:04;;;;;;;1.25;0.93;;;-2.90;99.90;;;;;;5024023;28;20460;-62
2022/12/18 08:54:30;;;;;;;3.92;1.95;;;-3.00;99.90;;;;;;5018166;28;20053;-63
2022/12/18 08:56:55;;;;;;;1.65;1.55;;;-2.90;99.90;;;;;;5026755;28;20489;-62
2022/12/18 08:59:21;;;;;;;1.25;1.25;;;-2.80;99.90;;;;;;5031703;28;20129;-62
2022/12/18 09:01:47;;;;;;;0.57;0.57;;;-2.80;99.90;;;;;;5029397;28;20046;-62
2022/12/18 09:04:13;;;;;;;1.40;0.95;;;-2.70;99.90;;;;;;5029184;28;20060;-62
2022/12/18 09:06:40;;;;;;;4.13;2.20;;;-2.70;99.90;;;;;;5029137;28;20049;-62
2022/12/18 09:09:06;;;;;;;10.80;2.25;;;-2.70;99.90;;;;;;5028253;28;20817;-62
2022/12/18 09:11:32;;;;;;;1.00;1.00;;;-2.60;99.90;;;;;;5030351;28;20140;-63
2022/12/18 09:14:00;;;;;;;1.42;1.40;;;-2.60;99.90;;;;;;5029485;28;20768;-62
2022/12/18 09:16:27;;;;;;;0.63;0.52;;;-2.50;99.90;;;;;;5030862;28;20429;-62
2022/12/18 09:18:59;;;;;;;0.40;0.40;;;-2.50;99.90;;;;;;5029263;28;20069;-62
2022/12/18 09:21:26;;;;;;;0.82;0.82;;;-2.50;99.90;;;;;;5028615;28;20085;-62
2022/12/18 09:23:53;;;;;;;1.95;1.35;;;-2.30;99.90;;;;;;5024817;28;20037;-62
2022/12/18 09:26:23;;;;;;;2.70;2.20;;;-2.30;99.90;;;;;;5029388;28;20061;-62
2022/12/18 09:28:49;;;;;;;0.60;0.60;;;-2.20;99.90;;;;;;5020340;28;20054;-63
2022/12/18 09:31:16;;;;;;;0.95;0.95;;;-2.10;99.90;;;;;;5024157;28;20038;-61
2022/12/18 09:33:42;;;;;;;0.73;0.73;;;-2.10;99.90;;;;;;5023965;28;20128;-61
2022/12/18 09:36:11;;;;;;;1.23;1.13;;;-2.00;99.90;;;;;;5026773;28;20128;-61
2022/12/18 09:38:36;;;;;;;1.38;1.38;;;-2.00;99.90;;;;;;5027363;28;20128;-61
2022/12/18 09:41:31;;;;;;;1.48;1.38;;;-2.00;99.90;;;;;;5025440;28;20527;-61
2022/12/18 09:44:19;;;;;;;0.40;0.40;;;-1.90;99.90;;;;;;5024589;28;20087;-61
2022/12/18 09:46:53;;;;;;;2.78;2.58;;;-1.90;99.90;;;;;;5018701;28;20046;-60
2022/12/18 09:49:23;;;;;;;4.70;1.85;;;-1.90;99.90;;;;;;5028998;28;20405;-60
2022/12/18 09:52:04;;;;;;;1.00;0.80;;;-1.90;99.90;;;;;;5030013;28;20052;-61
2022/12/18 09:54:39;;;;;;;1.80;1.70;;;-1.90;99.90;;;;;;5028778;28;20505;-61
2022/12/18 09:57:05;;;;;;;1.42;1.38;;;-1.80;99.90;;;;;;5030256;28;20444;-61
2022/12/18 09:59:37;;;;;;;1.08;1.08;;;-1.80;99.90;;;;;;5029381;28;20540;-61
2022/12/18 10:02:15;;;;;;;1.40;1.38;;;-1.70;99.90;;;;;;5023305;28;22238;-61
2022/12/18 10:04:41;;;;;;;0.40;0.40;;;-1.70;99.90;;;;;;5043907;28;20037;-61
2022/12/18 10:07:42;;;;;;;3.03;1.13;;;-1.70;99.90;;;;;;5025484;28;20820;-61
2022/12/18 10:10:32;;;;;;;0.63;0.63;;;-1.60;99.90;;;;;;5027876;28;20037;-61
2022/12/18 10:13:08;;;;;;;0.40;0.40;;;-1.50;99.90;;;;;;5020068;28;20041;-61
2022/12/18 10:15:40;;;;;;;0.77;0.77;;;-1.50;99.90;;;;;;5027366;28;20038;-61
2022/12/18 10:18:27;;;;;;;1.27;1.27;;;-1.40;99.90;;;;;;5028860;28;20045;-61
2022/12/18 10:20:59;;;;;;;1.00;1.00;;;-1.30;99.90;;;;;;5026500;28;20127;-61
2022/12/18 10:23:39;;;;;;;2.47;1.80;;;-1.30;99.90;;;;;;5028054;28;20072;-61
2022/12/18 10:26:07;;;;;;;0.20;0.20;;;-1.30;99.90;;;;;;5028488;28;20586;-61
2022/12/18 10:28:38;;;;;;;2.58;2.40;;;-1.20;99.90;;;;;;5024888;28;20108;-61
2022/12/18 10:31:06;;;;;;;4.40;4.03;;;-1.10;99.90;;;;;;5028443;28;20045;-61
2022/12/18 10:33:32;;;;;;;0.43;0.43;;;-1.10;99.90;;;;;;5028435;28;20063;-61
2022/12/18 10:35:59;;;;;;;0.20;0.20;;;-1.00;99.90;;;;;;5026034;28;20446;-61
2022/12/18 10:38:28;;;;;;;0.57;0.57;;;-1.00;99.90;;;;;;5025131;28;20115;-61
2022/12/18 10:41:25;;;;;;;0.20;0.20;;;-1.00;99.90;;;;;;5029677;28;20049;-61
2022/12/18 10:44:12;;;;;;;0.77;0.77;;;-0.90;99.90;;;;;;5027100;28;20053;-61
2022/12/18 10:46:38;;;;;;;1.05;1.05;;;-0.90;99.90;;;;;;5022603;28;20523;-61
2022/12/18 10:49:04;;;;;;;0.63;0.63;;;-0.80;99.90;;;;;;5028257;28;20111;-61
2022/12/18 10:51:35;;;;;;;0.73;0.73;;;-0.80;99.90;;;;;;5023725;28;20054;-60
2022/12/18 10:54:14;;;;;;;0.95;0.95;;;-0.80;99.90;;;;;;5021914;28;20042;-62
2022/12/18 10:56:40;;;;;;;2.95;1.63;;;-0.80;99.90;;;;;;5019114;28;20387;-62
2022/12/18 10:59:11;;;;;;;0.40;0.40;;;-0.80;99.90;;;;;;5022330;28;20045;-62
2022/12/18 11:01:49;;;;;;;0.30;0.30;;;-0.70;99.90;;;;;;5019110;28;20481;-61
2022/12/18 11:04:30;;;;;;;0.25;0.25;;;-0.70;99.90;;;;;;5021444;28;20050;-62
2022/12/18 11:07:08;;;;;;;0.68;0.68;;;-0.70;99.90;;;;;;5022467;28;20041;-61
2022/12/18 11:09:38;;;;;;;0.30;0.30;;;-0.70;99.90;;;;;;5018837;28;20049;-62
2022/12/18 11:12:10;;;;;;;0.20;0.20;;;-0.60;99.90;;;;;;5026698;28;20041;-62
2022/12/18 11:14:49;;;;;;;0.40;0.40;;;-0.60;99.90;;;;;;5025016;28;20092;-62
2022/12/18 11:17:35;;;;;;;0.30;0.30;;;-0.50;99.90;;;;;;5026122;28;20045;-62
2022/12/18 11:20:02;;;;;;;0.30;0.30;;;-0.40;99.90;;;;;;5027379;28;20045;-62
2022/12/18 11:22:34;;;;;;;1.45;0.80;;;-0.40;99.90;;;;;;5027068;28;20115;-62
2022/12/18 11:25:10;;;;;;;0.20;0.20;;;-0.40;99.90;;;;;;5026305;28;20132;-62
2022/12/18 11:27:38;;;;;;;0.30;0.30;;;-0.40;99.90;;;;;;5027895;28;20041;-62
2022/12/18 11:30:10;;;;;;;0.30;0.30;;;-0.40;99.90;;;;;;5028083;28;20060;-62
2022/12/18 11:32:40;;;;;;;0.30;0.30;;;-0.40;99.90;;;;;;5024310;28;20040;-62
2022/12/18 11:35:20;;;;;;;0.40;0.40;;;-0.40;99.90;;;;;;5026905;28;20045;-62
2022/12/18 11:37:57;;;;;;;0.40;0.40;;;-0.40;99.90;;;;;;5026270;28;20057;-62
2022/12/18 11:40:32;;;;;;;0.93;0.93;;;-0.30;99.90;;;;;;5025443;28;20071;-62
2022/12/18 11:43:10;;;;;;;1.58;1.48;;;-0.30;99.90;;;;;;5041370;28;20045;-62
2022/12/18 11:45:43;;;;;;;1.13;1.13;;;-0.30;99.90;;;;;;5029446;28;20048;-62
2022/12/18 11:48:26;;;;;;;0.50;0.50;;;-0.30;99.90;;;;;;5027349;28;20077;-62
2022/12/18 11:50:57;;;;;;;0.30;0.30;;;-0.30;99.90;;;;;;5026827;28;20037;-62
2022/12/18 11:53:24;;;;;;;1.20;1.17;;;-0.30;99.90;;;;;;5025010;28;20129;-62
2022/12/18 11:56:18;;;;;;;0.32;0.32;;;-0.30;99.90;;;;;;5023791;28;20045;-62
2022/12/18 11:58:54;;;;;;;0.30;0.30;;;-0.30;99.90;;;;;;5025019;28;20049;-62
2022/12/18 12:01:37;;;;;;;0.70;0.70;;;-0.40;99.90;;;;;;5018573;28;20046;-62
2022/12/18 12:04:15;;;;;;;1.60;1.52;;;-0.40;99.90;;;;;;5024584;28;21586;-62
2022/12/18 12:06:59;;;;;;;0.52;0.52;;;-0.30;99.90;;;;;;5026509;28;20045;-62
2022/12/18 12:09:48;;;;;;;0.68;0.68;;;-0.30;99.90;;;;;;5019401;28;20085;-62
2022/12/18 12:12:45;;;;;;;1.75;1.65;;;-0.30;99.90;;;;;;5026057;28;20054;-62
2022/12/18 12:15:16;;;;;;;0.20;0.20;;;-0.30;99.90;;;;;;5020744;28;20677;-62
2022/12/18 12:18:01;;;;;;;0.90;0.90;;;-0.20;99.90;;;;;;5026257;28;20073;-62
2022/12/18 12:20:44;;;;;;;0.17;0.17;;;-0.20;99.90;;;;;;5016292;28;20045;-62
2022/12/18 12:23:42;;;;;;;;;;;-0.20;99.90;;;;;;5038817;28;20061;-62
2022/12/18 12:26:16;;;;;;;1.10;1.05;;;-0.20;99.90;;;;;;4992148;28;20027;-62
2022/12/18 12:28:51;;;;;;;;;;;-0.10;99.90;;;;;;5026524;28;20057;-62
2022/12/18 12:31:54;;;;;;;5.68;2.22;;;-0.10;99.90;;;;;;5027323;28;19929;-62
2022/12/18 12:34:25;;;;;;;0.30;0.30;;;-0.10;99.90;;;;;;4998377;28;20093;-62
2022/12/18 12:36:56;;;;;;;0.57;0.57;;;-0.10;99.90;;;;;;5025395;28;20113;-62
2022/12/18 12:39:28;;;;;;;0.40;0.40;;;0.00;99.90;;;;;;5024495;28;20402;-62
2022/12/18 12:44:55;;;;;;;0.25;0.25;;;0.10;99.90;;;;;;5018957;28;20401;-62
2022/12/18 12:47:26;;;;;;;0.22;0.22;;;0.10;99.90;;;;;;5019727;28;20058;-62
2022/12/18 12:49:53;;;;;;;0.20;0.20;;;0.10;99.90;;;;;;5025053;28;20038;-62
2022/12/18 12:52:46;;;;;;;0.30;0.30;;;0.10;99.90;;;;;;5026807;28;20390;-62
2022/12/18 12:55:26;;;;;;;0.30;0.30;;;0.10;99.90;;;;;;5026888;28;20049;-62
2022/12/18 12:58:11;;;;;;;1.20;1.20;;;0.10;99.90;;;;;;5024922;28;20050;-62
2022/12/18 13:00:49;;;;;;;1.23;1.23;;;0.10;99.90;;;;;;5018664;28;20053;-62
2022/12/18 13:03:28;;;;;;;0.22;0.22;;;0.10;99.90;;;;;;5022446;28;20480;-62
2022/12/18 13:06:04;;;;;;;0.20;0.20;;;0.10;99.90;;;;;;5026285;28;20457;-62
2022/12/18 13:08:31;;;;;;;0.20;0.20;;;0.20;99.90;;;;;;5028110;28;20095;-62
2022/12/18 13:13:55;;;;;;;0.30;0.30;;;0.10;99.90;;;;;;5026842;28;20535;-62
2022/12/18 13:16:23;;;;;;;0.90;0.90;;;0.20;99.90;;;;;;5030212;28;20041;-62